Mineral Point, WI

4:17 AM CST on December 06, 2016 (GMT -0600)
KWIMINER1 | | Change Station
Active Advisory: Dense Fog Advisory

Elev 1066 ft 42.85 °N, 90.18 °W | Updated 6 minutes ago

Fog
Fog
29.9 °F
Feels Like 30 °F
N
0.0
Wind Variable Wind from South
Gusts 0.0 mph

Today
High -- | Low -- °F
--% Chance of Precip.
Yesterday
High -- | Low -- °F
Precip. -- in
Pressure 29.81 in
Visibility 0.2 miles
Clouds Overcast 300 ft
Windchill 30 °F
Dew Point 30 °F
Humidity 99%
Rainfall 0.00 in
Snow Depth Not available.
7:17 AM 4:26 PM
Waxing Crescent, 40% visible
METAR KMRJ 060955Z AUTO 19003KT 1/4SM FG OVC003 00/00 A2981 RMK AO2
Pressure 29.81 in
Visibility 0.2 miles
Clouds Overcast 300 ft
Windchill 30 °F
Dew Point 30 °F
Humidity 99%
Rainfall 0.00 in
Snow Depth Not available.
7:17 AM 4:26 PM
Waxing Crescent, 40% visible
METAR KMRJ 060955Z AUTO 19003KT 1/4SM FG OVC003 00/00 A2981 RMK AO2

10-Day Weather Forecast

Almanac

Astronomy

Dec. 06, 2016 Rise Set
Actual Time
Civil Twilight
Nautical Twilight
Astronomical Twilight
Moon
Length of Visible Light
Length of Day
Tomorrow will be .
, % of the Moon is Illuminated

Today's Extremes

State Highs State Lows

Community

WunderPhotos

Upload Photos

1,955,935 photos uploaded!

WunderBlog® & News

Nearby

Air Quality

  Air Quality AQ Index Pollutant
Not available.

Snow Depth

Station Depth Elevation

Earthquake Activity

City Distance Mag. Time & Date
Minimum magnitude displayed is 2.5.

Coastal Water Temperatures

Place Temperature

Stations

Nearby Weather Stations

Station Location Temp. Windchill Dew Point Humidity Wind Precip. Elev Updated Type
                   

Watches & Warnings

Dense Fog Advisory
Issued: 3:27 AM CST Dec. 6, 2016 – National Weather Service

... Dense fog advisory in effect until 11 am CST this morning...

The National Weather Service in Milwaukee/Sullivan has issued a
dense fog advisory... which is in effect until 11 am CST this
morning.

* Timing... areas of dense fog this morning.

* Visibility... areas of 1/4 mile or much less.

* Impacts... reduced visibilities and slippery roads from frost
formation.


Precautionary/preparedness actions...

A dense fog advisory means visibilities will frequently be
reduced to less than one quarter mile. If driving... slow down...
use your headlights... and leave plenty of distance ahead of you.


Mg